sensor_id;sensor_type;location;lat;lon;timestamp;P1;durP1;ratioP1;P2;durP2;ratioP2
77016;SDS011;65949;53.132;17.930;2023-02-28T00:01:18;137.50;;;37.50;;
77016;SDS011;65949;53.132;17.930;2023-02-28T00:03:44;122.50;;;34.50;;
77016;SDS011;65949;53.132;17.930;2023-02-28T00:06:11;116.50;;;33.00;;
77016;SDS011;65949;53.132;17.930;2023-02-28T00:08:38;113.10;;;33.60;;
77016;SDS011;65949;53.132;17.930;2023-02-28T00:11:06;124.20;;;35.60;;
77016;SDS011;65949;53.132;17.930;2023-02-28T00:13:35;127.50;;;34.10;;
77016;SDS011;65949;53.132;17.930;2023-02-28T00:16:04;95.60;;;28.30;;
77016;SDS011;65949;53.132;17.930;2023-02-28T00:18:33;105.40;;;28.40;;
77016;SDS011;65949;53.132;17.930;2023-02-28T00:21:00;101.10;;;30.90;;
77016;SDS011;65949;53.132;17.930;2023-02-28T00:23:26;102.20;;;29.50;;
77016;SDS011;65949;53.132;17.930;2023-02-28T00:25:54;109.00;;;31.00;;
77016;SDS011;65949;53.132;17.930;2023-02-28T00:28:21;104.00;;;32.00;;
77016;SDS011;65949;53.132;17.930;2023-02-28T00:30:47;117.40;;;33.40;;
77016;SDS011;65949;53.132;17.930;2023-02-28T00:33:14;110.60;;;33.70;;
77016;SDS011;65949;53.132;17.930;2023-02-28T00:35:41;148.20;;;45.90;;
77016;SDS011;65949;53.132;17.930;2023-02-28T00:38:09;144.70;;;48.00;;
77016;SDS011;65949;53.132;17.930;2023-02-28T00:40:36;141.80;;;46.20;;
77016;SDS011;65949;53.132;17.930;2023-02-28T00:43:02;125.20;;;37.60;;
77016;SDS011;65949;53.132;17.930;2023-02-28T00:45:30;122.10;;;37.60;;
77016;SDS011;65949;53.132;17.930;2023-02-28T00:47:57;120.70;;;34.90;;
77016;SDS011;65949;53.132;17.930;2023-02-28T00:50:24;112.90;;;36.50;;
77016;SDS011;65949;53.132;17.930;2023-02-28T00:52:50;120.70;;;36.40;;
77016;SDS011;65949;53.132;17.930;2023-02-28T00:55:17;119.00;;;35.70;;
77016;SDS011;65949;53.132;17.930;2023-02-28T00:57:44;115.40;;;35.90;;
77016;SDS011;65949;53.132;17.930;2023-02-28T01:00:11;123.60;;;37.30;;
77016;SDS011;65949;53.132;17.930;2023-02-28T01:02:38;122.10;;;39.30;;
77016;SDS011;65949;53.132;17.930;2023-02-28T01:05:05;108.30;;;34.60;;
77016;SDS011;65949;53.132;17.930;2023-02-28T01:07:32;93.80;;;29.80;;
77016;SDS011;65949;53.132;17.930;2023-02-28T01:09:59;111.00;;;33.00;;
77016;SDS011;65949;53.132;17.930;2023-02-28T01:12:25;89.10;;;28.40;;
77016;SDS011;65949;53.132;17.930;2023-02-28T01:14:52;94.50;;;28.90;;
77016;SDS011;65949;53.132;17.930;2023-02-28T01:17:21;89.00;;;26.70;;
77016;SDS011;65949;53.132;17.930;2023-02-28T01:19:47;86.10;;;26.30;;
77016;SDS011;65949;53.132;17.930;2023-02-28T01:22:14;92.40;;;29.70;;
77016;SDS011;65949;53.132;17.930;2023-02-28T01:24:42;81.80;;;26.30;;
77016;SDS011;65949;53.132;17.930;2023-02-28T01:27:12;87.50;;;27.50;;
77016;SDS011;65949;53.132;17.930;2023-02-28T01:29:39;85.40;;;26.30;;
77016;SDS011;65949;53.132;17.930;2023-02-28T01:32:06;85.30;;;27.90;;
77016;SDS011;65949;53.132;17.930;2023-02-28T01:34:32;125.90;;;41.20;;
77016;SDS011;65949;53.132;17.930;2023-02-28T01:36:59;141.30;;;48.80;;
77016;SDS011;65949;53.132;17.930;2023-02-28T01:39:26;130.90;;;48.90;;
77016;SDS011;65949;53.132;17.930;2023-02-28T01:41:52;109.50;;;41.20;;
77016;SDS011;65949;53.132;17.930;2023-02-28T01:47:26;95.20;;;33.20;;
77016;SDS011;65949;53.132;17.930;2023-02-28T01:49:57;93.00;;;32.50;;
77016;SDS011;65949;53.132;17.930;2023-02-28T01:52:25;92.70;;;30.70;;
77016;SDS011;65949;53.132;17.930;2023-02-28T01:54:54;87.80;;;29.70;;
77016;SDS011;65949;53.132;17.930;2023-02-28T01:57:24;85.90;;;29.20;;
77016;SDS011;65949;53.132;17.930;2023-02-28T01:59:57;83.20;;;26.70;;
77016;SDS011;65949;53.132;17.930;2023-02-28T02:02:39;80.40;;;26.60;;
77016;SDS011;65949;53.132;17.930;2023-02-28T02:05:10;72.30;;;25.00;;
77016;SDS011;65949;53.132;17.930;2023-02-28T02:07:42;84.20;;;29.10;;
77016;SDS011;65949;53.132;17.930;2023-02-28T02:15:44;90.90;;;28.50;;
77016;SDS011;65949;53.132;17.930;2023-02-28T02:18:36;66.20;;;20.80;;
77016;SDS011;65949;53.132;17.930;2023-02-28T02:26:43;66.70;;;23.70;;
77016;SDS011;65949;53.132;17.930;2023-02-28T02:29:36;77.70;;;26.20;;
77016;SDS011;65949;53.132;17.930;2023-02-28T02:32:15;60.30;;;19.60;;
77016;SDS011;65949;53.132;17.930;2023-02-28T02:38:00;82.10;;;28.30;;
77016;SDS011;65949;53.132;17.930;2023-02-28T02:41:23;112.20;;;36.60;;
77016;SDS011;65949;53.132;17.930;2023-02-28T02:43:49;124.50;;;43.80;;
77016;SDS011;65949;53.132;17.930;2023-02-28T02:46:39;143.40;;;51.10;;
77016;SDS011;65949;53.132;17.930;2023-02-28T02:49:11;116.50;;;42.60;;
77016;SDS011;65949;53.132;17.930;2023-02-28T02:51:43;95.60;;;33.20;;
77016;SDS011;65949;53.132;17.930;2023-02-28T02:54:24;79.00;;;27.30;;
77016;SDS011;65949;53.132;17.930;2023-02-28T02:56:56;84.40;;;26.50;;
77016;SDS011;65949;53.132;17.930;2023-02-28T02:59:26;104.30;;;32.00;;
77016;SDS011;65949;53.132;17.930;2023-02-28T03:02:01;113.90;;;34.90;;
77016;SDS011;65949;53.132;17.930;2023-02-28T03:04:32;109.10;;;33.00;;
77016;SDS011;65949;53.132;17.930;2023-02-28T03:07:04;102.00;;;29.20;;
77016;SDS011;65949;53.132;17.930;2023-02-28T03:09:32;78.30;;;27.00;;
77016;SDS011;65949;53.132;17.930;2023-02-28T03:12:00;90.60;;;28.60;;
77016;SDS011;65949;53.132;17.930;2023-02-28T03:20:15;76.80;;;21.40;;
77016;SDS011;65949;53.132;17.930;2023-02-28T03:25:59;53.80;;;16.10;;
77016;SDS011;65949;53.132;17.930;2023-02-28T03:28:32;54.50;;;16.60;;
77016;SDS011;65949;53.132;17.930;2023-02-28T03:31:07;60.80;;;19.20;;
77016;SDS011;65949;53.132;17.930;2023-02-28T03:33:50;57.20;;;16.70;;
77016;SDS011;65949;53.132;17.930;2023-02-28T03:36:44;53.10;;;16.50;;
77016;SDS011;65949;53.132;17.930;2023-02-28T03:39:16;55.80;;;18.70;;
77016;SDS011;65949;53.132;17.930;2023-02-28T03:41:54;76.80;;;26.10;;
77016;SDS011;65949;53.132;17.930;2023-02-28T03:44:30;75.00;;;24.30;;
77016;SDS011;65949;53.132;17.930;2023-02-28T03:47:02;107.80;;;38.70;;
77016;SDS011;65949;53.132;17.930;2023-02-28T03:49:35;108.90;;;39.00;;
77016;SDS011;65949;53.132;17.930;2023-02-28T03:52:09;100.40;;;39.20;;
77016;SDS011;65949;53.132;17.930;2023-02-28T03:54:39;108.80;;;39.30;;
77016;SDS011;65949;53.132;17.930;2023-02-28T03:57:27;86.80;;;30.80;;
77016;SDS011;65949;53.132;17.930;2023-02-28T03:59:59;90.50;;;29.20;;
77016;SDS011;65949;53.132;17.930;2023-02-28T04:02:38;92.30;;;29.50;;
77016;SDS011;65949;53.132;17.930;2023-02-28T04:05:06;79.20;;;27.50;;
77016;SDS011;65949;53.132;17.930;2023-02-28T04:07:34;87.20;;;28.70;;
77016;SDS011;65949;53.132;17.930;2023-02-28T04:10:01;79.90;;;27.10;;
77016;SDS011;65949;53.132;17.930;2023-02-28T04:12:28;80.30;;;27.10;;
77016;SDS011;65949;53.132;17.930;2023-02-28T04:14:55;84.50;;;26.20;;
77016;SDS011;65949;53.132;17.930;2023-02-28T04:17:22;82.40;;;28.30;;
77016;SDS011;65949;53.132;17.930;2023-02-28T04:19:48;74.10;;;25.30;;
77016;SDS011;65949;53.132;17.930;2023-02-28T04:22:16;75.00;;;25.90;;
77016;SDS011;65949;53.132;17.930;2023-02-28T04:24:44;73.50;;;25.60;;
77016;SDS011;65949;53.132;17.930;2023-02-28T04:27:11;72.00;;;24.90;;
77016;SDS011;65949;53.132;17.930;2023-02-28T04:29:37;68.30;;;25.40;;
77016;SDS011;65949;53.132;17.930;2023-02-28T04:32:04;66.60;;;22.80;;
77016;SDS011;65949;53.132;17.930;2023-02-28T04:34:31;57.00;;;21.10;;
77016;SDS011;65949;53.132;17.930;2023-02-28T04:36:59;65.70;;;22.10;;
77016;SDS011;65949;53.132;17.930;2023-02-28T04:39:26;57.90;;;19.20;;
77016;SDS011;65949;53.132;17.930;2023-02-28T04:41:53;59.70;;;21.80;;
77016;SDS011;65949;53.132;17.930;2023-02-28T04:44:20;59.10;;;20.10;;
77016;SDS011;65949;53.132;17.930;2023-02-28T04:46:47;50.20;;;17.40;;
77016;SDS011;65949;53.132;17.930;2023-02-28T04:49:14;77.00;;;27.60;;
77016;SDS011;65949;53.132;17.930;2023-02-28T04:51:41;81.20;;;30.60;;
77016;SDS011;65949;53.132;17.930;2023-02-28T04:54:08;94.50;;;37.10;;
77016;SDS011;65949;53.132;17.930;2023-02-28T04:56:35;96.40;;;38.20;;
77016;SDS011;65949;53.132;17.930;2023-02-28T04:59:01;86.30;;;36.00;;
77016;SDS011;65949;53.132;17.930;2023-02-28T05:01:29;74.70;;;29.70;;
77016;SDS011;65949;53.132;17.930;2023-02-28T05:03:59;61.10;;;21.20;;
77016;SDS011;65949;53.132;17.930;2023-02-28T05:06:28;57.60;;;19.60;;
77016;SDS011;65949;53.132;17.930;2023-02-28T05:08:57;69.20;;;22.40;;
77016;SDS011;65949;53.132;17.930;2023-02-28T05:11:26;59.60;;;21.30;;
77016;SDS011;65949;53.132;17.930;2023-02-28T05:13:55;81.80;;;29.30;;
77016;SDS011;65949;53.132;17.930;2023-02-28T05:16:22;89.20;;;30.10;;
77016;SDS011;65949;53.132;17.930;2023-02-28T05:18:48;74.60;;;25.70;;
77016;SDS011;65949;53.132;17.930;2023-02-28T05:21:21;63.40;;;22.70;;
77016;SDS011;65949;53.132;17.930;2023-02-28T05:23:50;62.60;;;21.80;;
77016;SDS011;65949;53.132;17.930;2023-02-28T05:26:18;66.80;;;23.60;;
77016;SDS011;65949;53.132;17.930;2023-02-28T05:28:45;69.50;;;23.50;;
77016;SDS011;65949;53.132;17.930;2023-02-28T05:31:12;64.00;;;21.80;;
77016;SDS011;65949;53.132;17.930;2023-02-28T05:33:39;57.70;;;19.60;;
77016;SDS011;65949;53.132;17.930;2023-02-28T05:36:06;55.70;;;18.40;;
77016;SDS011;65949;53.132;17.930;2023-02-28T05:38:33;60.00;;;18.50;;
77016;SDS011;65949;53.132;17.930;2023-02-28T05:41:00;66.00;;;21.60;;
77016;SDS011;65949;53.132;17.930;2023-02-28T05:43:30;66.80;;;20.70;;
77016;SDS011;65949;53.132;17.930;2023-02-28T05:45:57;85.50;;;25.50;;
77016;SDS011;65949;53.132;17.930;2023-02-28T05:48:23;70.00;;;20.90;;
77016;SDS011;65949;53.132;17.930;2023-02-28T05:50:52;73.80;;;22.00;;
77016;SDS011;65949;53.132;17.930;2023-02-28T05:53:18;87.50;;;28.60;;
77016;SDS011;65949;53.132;17.930;2023-02-28T05:55:45;101.00;;;34.00;;
77016;SDS011;65949;53.132;17.930;2023-02-28T05:58:12;114.80;;;39.00;;
77016;SDS011;65949;53.132;17.930;2023-02-28T06:00:38;108.60;;;37.20;;
77016;SDS011;65949;53.132;17.930;2023-02-28T06:03:05;78.10;;;30.50;;
77016;SDS011;65949;53.132;17.930;2023-02-28T06:05:32;60.90;;;22.50;;
77016;SDS011;65949;53.132;17.930;2023-02-28T06:07:59;75.30;;;24.10;;
77016;SDS011;65949;53.132;17.930;2023-02-28T06:10:26;95.40;;;29.00;;
77016;SDS011;65949;53.132;17.930;2023-02-28T06:12:52;95.40;;;32.40;;
77016;SDS011;65949;53.132;17.930;2023-02-28T06:15:19;90.90;;;29.80;;
77016;SDS011;65949;53.132;17.930;2023-02-28T06:17:47;79.50;;;25.30;;
77016;SDS011;65949;53.132;17.930;2023-02-28T06:20:13;63.50;;;20.90;;
77016;SDS011;65949;53.132;17.930;2023-02-28T06:22:40;47.10;;;16.80;;
77016;SDS011;65949;53.132;17.930;2023-02-28T06:25:07;46.70;;;15.90;;
77016;SDS011;65949;53.132;17.930;2023-02-28T06:27:34;41.40;;;15.00;;
77016;SDS011;65949;53.132;17.930;2023-02-28T06:30:00;45.10;;;15.20;;
77016;SDS011;65949;53.132;17.930;2023-02-28T06:32:27;58.00;;;19.80;;
77016;SDS011;65949;53.132;17.930;2023-02-28T06:34:54;66.10;;;21.70;;
77016;SDS011;65949;53.132;17.930;2023-02-28T06:37:21;50.80;;;17.90;;
77016;SDS011;65949;53.132;17.930;2023-02-28T06:39:47;85.40;;;27.10;;
77016;SDS011;65949;53.132;17.930;2023-02-28T06:42:14;98.80;;;33.00;;
77016;SDS011;65949;53.132;17.930;2023-02-28T06:44:40;73.80;;;25.20;;
77016;SDS011;65949;53.132;17.930;2023-02-28T06:47:09;110.10;;;32.00;;
77016;SDS011;65949;53.132;17.930;2023-02-28T06:49:35;86.00;;;27.00;;
77016;SDS011;65949;53.132;17.930;2023-02-28T06:52:02;96.90;;;28.80;;
77016;SDS011;65949;53.132;17.930;2023-02-28T06:54:29;92.60;;;28.50;;
77016;SDS011;65949;53.132;17.930;2023-02-28T06:56:57;91.60;;;29.80;;
77016;SDS011;65949;53.132;17.930;2023-02-28T06:59:24;91.20;;;30.50;;
77016;SDS011;65949;53.132;17.930;2023-02-28T07:01:51;98.80;;;33.60;;
77016;SDS011;65949;53.132;17.930;2023-02-28T07:04:18;141.90;;;50.60;;
77016;SDS011;65949;53.132;17.930;2023-02-28T07:06:44;141.30;;;56.00;;
77016;SDS011;65949;53.132;17.930;2023-02-28T07:09:11;129.70;;;47.50;;
77016;SDS011;65949;53.132;17.930;2023-02-28T07:11:38;106.80;;;37.00;;
77016;SDS011;65949;53.132;17.930;2023-02-28T07:14:04;100.00;;;33.90;;
77016;SDS011;65949;53.132;17.930;2023-02-28T07:16:31;97.70;;;33.10;;
77016;SDS011;65949;53.132;17.930;2023-02-28T07:18:58;95.40;;;32.40;;
77016;SDS011;65949;53.132;17.930;2023-02-28T07:21:24;105.40;;;35.10;;
77016;SDS011;65949;53.132;17.930;2023-02-28T07:23:51;78.90;;;28.30;;
77016;SDS011;65949;53.132;17.930;2023-02-28T07:26:19;80.20;;;26.70;;
77016;SDS011;65949;53.132;17.930;2023-02-28T07:28:47;76.30;;;26.00;;
77016;SDS011;65949;53.132;17.930;2023-02-28T07:31:15;67.40;;;24.70;;
77016;SDS011;65949;53.132;17.930;2023-02-28T07:33:43;62.30;;;21.70;;
77016;SDS011;65949;53.132;17.930;2023-02-28T07:36:11;85.50;;;29.50;;
77016;SDS011;65949;53.132;17.930;2023-02-28T07:38:42;70.80;;;26.60;;
77016;SDS011;65949;53.132;17.930;2023-02-28T07:41:10;65.20;;;24.60;;
77016;SDS011;65949;53.132;17.930;2023-02-28T07:43:37;69.40;;;26.90;;
77016;SDS011;65949;53.132;17.930;2023-02-28T07:46:04;64.10;;;24.10;;
77016;SDS011;65949;53.132;17.930;2023-02-28T07:48:33;69.70;;;25.90;;
77016;SDS011;65949;53.132;17.930;2023-02-28T07:51:00;55.20;;;21.00;;
77016;SDS011;65949;53.132;17.930;2023-02-28T07:53:27;66.30;;;26.20;;
77016;SDS011;65949;53.132;17.930;2023-02-28T07:55:58;85.30;;;36.50;;
77016;SDS011;65949;53.132;17.930;2023-02-28T07:58:27;79.20;;;33.40;;
77016;SDS011;65949;53.132;17.930;2023-02-28T08:00:55;69.60;;;25.60;;
77016;SDS011;65949;53.132;17.930;2023-02-28T08:03:23;63.00;;;22.80;;
77016;SDS011;65949;53.132;17.930;2023-02-28T08:05:50;63.70;;;23.30;;
77016;SDS011;65949;53.132;17.930;2023-02-28T08:08:18;76.20;;;26.30;;
77016;SDS011;65949;53.132;17.930;2023-02-28T08:10:45;69.90;;;24.60;;
77016;SDS011;65949;53.132;17.930;2023-02-28T08:13:12;70.90;;;23.20;;
77016;SDS011;65949;53.132;17.930;2023-02-28T08:15:40;77.20;;;25.20;;
77016;SDS011;65949;53.132;17.930;2023-02-28T08:18:08;72.30;;;22.30;;
77016;SDS011;65949;53.132;17.930;2023-02-28T08:20:35;78.30;;;26.10;;
77016;SDS011;65949;53.132;17.930;2023-02-28T08:23:01;75.20;;;24.60;;
77016;SDS011;65949;53.132;17.930;2023-02-28T08:25:28;63.30;;;21.20;;
77016;SDS011;65949;53.132;17.930;2023-02-28T08:27:55;71.90;;;24.30;;
77016;SDS011;65949;53.132;17.930;2023-02-28T08:30:21;65.30;;;23.20;;
77016;SDS011;65949;53.132;17.930;2023-02-28T08:32:48;65.30;;;22.40;;
77016;SDS011;65949;53.132;17.930;2023-02-28T08:35:14;56.10;;;20.30;;
77016;SDS011;65949;53.132;17.930;2023-02-28T08:37:41;47.00;;;15.80;;
77016;SDS011;65949;53.132;17.930;2023-02-28T08:40:08;37.40;;;13.90;;
77016;SDS011;65949;53.132;17.930;2023-02-28T08:42:35;26.10;;;9.80;;
77016;SDS011;65949;53.132;17.930;2023-02-28T08:45:02;27.20;;;10.80;;
77016;SDS011;65949;53.132;17.930;2023-02-28T08:47:29;31.90;;;12.50;;
77016;SDS011;65949;53.132;17.930;2023-02-28T08:50:04;35.00;;;15.00;;
77016;SDS011;65949;53.132;17.930;2023-02-28T08:52:32;26.70;;;11.80;;
77016;SDS011;65949;53.132;17.930;2023-02-28T08:54:59;25.00;;;10.70;;
77016;SDS011;65949;53.132;17.930;2023-02-28T08:57:26;20.70;;;8.50;;
77016;SDS011;65949;53.132;17.930;2023-02-28T08:59:53;24.70;;;8.90;;
77016;SDS011;65949;53.132;17.930;2023-02-28T09:02:20;19.00;;;8.50;;
77016;SDS011;65949;53.132;17.930;2023-02-28T09:04:46;30.20;;;10.50;;
77016;SDS011;65949;53.132;17.930;2023-02-28T09:07:13;18.10;;;6.30;;
77016;SDS011;65949;53.132;17.930;2023-02-28T09:09:40;19.30;;;6.50;;
77016;SDS011;65949;53.132;17.930;2023-02-28T09:12:20;16.90;;;5.90;;
77016;SDS011;65949;53.132;17.930;2023-02-28T09:14:48;16.30;;;5.70;;
77016;SDS011;65949;53.132;17.930;2023-02-28T09:17:15;19.00;;;6.50;;
77016;SDS011;65949;53.132;17.930;2023-02-28T09:19:42;17.70;;;6.40;;
77016;SDS011;65949;53.132;17.930;2023-02-28T09:22:09;15.20;;;5.60;;
77016;SDS011;65949;53.132;17.930;2023-02-28T09:24:37;12.50;;;5.30;;
77016;SDS011;65949;53.132;17.930;2023-02-28T09:27:04;17.70;;;6.20;;
77016;SDS011;65949;53.132;17.930;2023-02-28T09:29:32;17.80;;;6.70;;
77016;SDS011;65949;53.132;17.930;2023-02-28T09:32:01;17.10;;;5.80;;
77016;SDS011;65949;53.132;17.930;2023-02-28T09:34:28;15.50;;;5.00;;
77016;SDS011;65949;53.132;17.930;2023-02-28T09:36:57;25.10;;;14.40;;
77016;SDS011;65949;53.132;17.930;2023-02-28T09:39:23;13.70;;;5.20;;
77016;SDS011;65949;53.132;17.930;2023-02-28T09:41:53;15.10;;;4.90;;
77016;SDS011;65949;53.132;17.930;2023-02-28T09:44:41;15.40;;;5.00;;
77016;SDS011;65949;53.132;17.930;2023-02-28T09:49:41;13.40;;;4.80;;
77016;SDS011;65949;53.132;17.930;2023-02-28T09:52:14;21.50;;;8.80;;
77016;SDS011;65949;53.132;17.930;2023-02-28T09:54:45;12.00;;;4.90;;
77016;SDS011;65949;53.132;17.930;2023-02-28T10:05:42;23.90;;;15.10;;
77016;SDS011;65949;53.132;17.930;2023-02-28T10:08:28;12.10;;;4.70;;
77016;SDS011;65949;53.132;17.930;2023-02-28T10:11:02;11.60;;;4.20;;
77016;SDS011;65949;53.132;17.930;2023-02-28T10:13:52;15.20;;;5.20;;
77016;SDS011;65949;53.132;17.930;2023-02-28T10:16:35;15.20;;;5.90;;
77016;SDS011;65949;53.132;17.930;2023-02-28T10:24:29;10.80;;;4.80;;
77016;SDS011;65949;53.132;17.930;2023-02-28T10:27:00;12.50;;;4.50;;
77016;SDS011;65949;53.132;17.930;2023-02-28T10:29:42;11.50;;;4.30;;
77016;SDS011;65949;53.132;17.930;2023-02-28T10:32:11;12.30;;;4.50;;
77016;SDS011;65949;53.132;17.930;2023-02-28T10:34:41;12.20;;;4.40;;
77016;SDS011;65949;53.132;17.930;2023-02-28T10:37:08;14.30;;;4.20;;
77016;SDS011;65949;53.132;17.930;2023-02-28T10:39:44;12.90;;;4.40;;
77016;SDS011;65949;53.132;17.930;2023-02-28T10:44:48;13.10;;;4.60;;
77016;SDS011;65949;53.132;17.930;2023-02-28T10:47:15;14.60;;;4.80;;
77016;SDS011;65949;53.132;17.930;2023-02-28T10:49:47;11.60;;;4.50;;
77016;SDS011;65949;53.132;17.930;2023-02-28T10:52:32;13.30;;;4.90;;
77016;SDS011;65949;53.132;17.930;2023-02-28T10:55:18;17.30;;;6.40;;
77016;SDS011;65949;53.132;17.930;2023-02-28T10:57:52;18.00;;;4.00;;
77016;SDS011;65949;53.132;17.930;2023-02-28T11:00:22;10.30;;;4.00;;
77016;SDS011;65949;53.132;17.930;2023-02-28T11:02:51;13.70;;;4.00;;
77016;SDS011;65949;53.132;17.930;2023-02-28T11:08:05;9.40;;;3.60;;
77016;SDS011;65949;53.132;17.930;2023-02-28T11:10:38;10.20;;;3.30;;
77016;SDS011;65949;53.132;17.930;2023-02-28T11:13:05;11.30;;;3.70;;
77016;SDS011;65949;53.132;17.930;2023-02-28T11:15:32;11.50;;;3.20;;
77016;SDS011;65949;53.132;17.930;2023-02-28T11:18:18;9.20;;;3.10;;
77016;SDS011;65949;53.132;17.930;2023-02-28T11:20:50;9.20;;;2.50;;
77016;SDS011;65949;53.132;17.930;2023-02-28T11:23:18;8.20;;;2.70;;
77016;SDS011;65949;53.132;17.930;2023-02-28T11:25:51;12.70;;;5.70;;
77016;SDS011;65949;53.132;17.930;2023-02-28T11:28:31;11.90;;;5.50;;
77016;SDS011;65949;53.132;17.930;2023-02-28T11:33:53;59.60;;;34.80;;
77016;SDS011;65949;53.132;17.930;2023-02-28T11:36:23;11.70;;;5.80;;
77016;SDS011;65949;53.132;17.930;2023-02-28T11:38:53;10.00;;;3.50;;
77016;SDS011;65949;53.132;17.930;2023-02-28T11:47:28;112.20;;;80.30;;
77016;SDS011;65949;53.132;17.930;2023-02-28T11:56:00;34.10;;;20.90;;
77016;SDS011;65949;53.132;17.930;2023-02-28T12:01:48;11.90;;;5.30;;
77016;SDS011;65949;53.132;17.930;2023-02-28T12:10:27;10.90;;;3.90;;
77016;SDS011;65949;53.132;17.930;2023-02-28T12:13:12;10.00;;;3.30;;
77016;SDS011;65949;53.132;17.930;2023-02-28T12:18:48;7.80;;;2.20;;
77016;SDS011;65949;53.132;17.930;2023-02-28T12:21:34;6.50;;;1.60;;
77016;SDS011;65949;53.132;17.930;2023-02-28T12:26:51;9.10;;;2.30;;
77016;SDS011;65949;53.132;17.930;2023-02-28T12:31:53;12.40;;;7.20;;
77016;SDS011;65949;53.132;17.930;2023-02-28T12:34:28;12.00;;;3.50;;
77016;SDS011;65949;53.132;17.930;2023-02-28T12:37:01;32.70;;;14.70;;
77016;SDS011;65949;53.132;17.930;2023-02-28T12:39:35;18.30;;;6.80;;
77016;SDS011;65949;53.132;17.930;2023-02-28T12:42:10;9.60;;;3.10;;
77016;SDS011;65949;53.132;17.930;2023-02-28T12:44:44;12.60;;;4.90;;
77016;SDS011;65949;53.132;17.930;2023-02-28T12:47:17;10.90;;;3.60;;
77016;SDS011;65949;53.132;17.930;2023-02-28T12:49:54;16.10;;;8.00;;
77016;SDS011;65949;53.132;17.930;2023-02-28T12:52:30;21.10;;;12.20;;
77016;SDS011;65949;53.132;17.930;2023-02-28T12:55:23;7.10;;;2.90;;
77016;SDS011;65949;53.132;17.930;2023-02-28T12:58:36;8.20;;;3.20;;
77016;SDS011;65949;53.132;17.930;2023-02-28T13:09:14;28.10;;;18.40;;
77016;SDS011;65949;53.132;17.930;2023-02-28T13:11:43;11.50;;;5.20;;
77016;SDS011;65949;53.132;17.930;2023-02-28T13:19:31;9.00;;;3.20;;
77016;SDS011;65949;53.132;17.930;2023-02-28T13:22:00;8.00;;;2.40;;
77016;SDS011;65949;53.132;17.930;2023-02-28T13:27:19;56.10;;;18.80;;
77016;SDS011;65949;53.132;17.930;2023-02-28T13:29:53;371.60;;;142.10;;
77016;SDS011;65949;53.132;17.930;2023-02-28T13:39:47;121.50;;;45.60;;
77016;SDS011;65949;53.132;17.930;2023-02-28T13:50:19;10.30;;;3.30;;
77016;SDS011;65949;53.132;17.930;2023-02-28T14:01:05;11.10;;;3.80;;
77016;SDS011;65949;53.132;17.930;2023-02-28T14:09:16;10.40;;;4.40;;
77016;SDS011;65949;53.132;17.930;2023-02-28T14:11:53;8.20;;;3.40;;
77016;SDS011;65949;53.132;17.930;2023-02-28T14:17:23;14.20;;;8.10;;
77016;SDS011;65949;53.132;17.930;2023-02-28T14:19:50;9.50;;;3.70;;
77016;SDS011;65949;53.132;17.930;2023-02-28T14:22:32;9.90;;;3.70;;
77016;SDS011;65949;53.132;17.930;2023-02-28T14:30:29;40.00;;;25.10;;
77016;SDS011;65949;53.132;17.930;2023-02-28T14:38:36;21.80;;;13.90;;
77016;SDS011;65949;53.132;17.930;2023-02-28T14:41:22;10.80;;;4.10;;
77016;SDS011;65949;53.132;17.930;2023-02-28T14:44:11;10.40;;;4.50;;
77016;SDS011;65949;53.132;17.930;2023-02-28T14:46:39;13.20;;;5.30;;
77016;SDS011;65949;53.132;17.930;2023-02-28T14:49:13;12.80;;;4.80;;
77016;SDS011;65949;53.132;17.930;2023-02-28T14:51:44;12.30;;;5.70;;
77016;SDS011;65949;53.132;17.930;2023-02-28T14:54:14;11.70;;;2.70;;
77016;SDS011;65949;53.132;17.930;2023-02-28T14:56:43;8.00;;;3.00;;
77016;SDS011;65949;53.132;17.930;2023-02-28T14:59:26;8.40;;;2.90;;
77016;SDS011;65949;53.132;17.930;2023-02-28T15:02:14;14.10;;;8.10;;
77016;SDS011;65949;53.132;17.930;2023-02-28T15:04:40;23.50;;;11.00;;
77016;SDS011;65949;53.132;17.930;2023-02-28T15:07:13;36.40;;;21.10;;
77016;SDS011;65949;53.132;17.930;2023-02-28T15:09:40;10.10;;;3.70;;
77016;SDS011;65949;53.132;17.930;2023-02-28T15:12:07;31.00;;;20.50;;
77016;SDS011;65949;53.132;17.930;2023-02-28T15:14:37;11.20;;;3.90;;
77016;SDS011;65949;53.132;17.930;2023-02-28T15:17:11;10.00;;;3.60;;
77016;SDS011;65949;53.132;17.930;2023-02-28T15:19:48;12.50;;;4.60;;
77016;SDS011;65949;53.132;17.930;2023-02-28T15:22:19;11.60;;;4.50;;
77016;SDS011;65949;53.132;17.930;2023-02-28T15:25:03;12.30;;;3.90;;
77016;SDS011;65949;53.132;17.930;2023-02-28T15:27:32;13.60;;;5.30;;
77016;SDS011;65949;53.132;17.930;2023-02-28T15:30:04;10.10;;;4.00;;
77016;SDS011;65949;53.132;17.930;2023-02-28T15:32:37;13.30;;;4.00;;
77016;SDS011;65949;53.132;17.930;2023-02-28T15:43:13;12.30;;;4.40;;
77016;SDS011;65949;53.132;17.930;2023-02-28T15:54:01;21.80;;;8.50;;
77016;SDS011;65949;53.132;17.930;2023-02-28T15:59:18;15.30;;;6.00;;
77016;SDS011;65949;53.132;17.930;2023-02-28T16:04:36;18.80;;;7.00;;
77016;SDS011;65949;53.132;17.930;2023-02-28T16:07:04;21.10;;;7.10;;
77016;SDS011;65949;53.132;17.930;2023-02-28T16:09:38;23.10;;;9.10;;
77016;SDS011;65949;53.132;17.930;2023-02-28T16:12:05;33.80;;;12.40;;
77016;SDS011;65949;53.132;17.930;2023-02-28T16:14:31;33.30;;;13.30;;
77016;SDS011;65949;53.132;17.930;2023-02-28T16:17:05;47.10;;;19.10;;
77016;SDS011;65949;53.132;17.930;2023-02-28T16:19:35;51.30;;;20.20;;
77016;SDS011;65949;53.132;17.930;2023-02-28T16:22:01;67.30;;;23.90;;
77016;SDS011;65949;53.132;17.930;2023-02-28T16:24:28;113.40;;;30.20;;
77016;SDS011;65949;53.132;17.930;2023-02-28T16:26:55;135.20;;;33.40;;
77016;SDS011;65949;53.132;17.930;2023-02-28T16:29:27;137.80;;;32.50;;
77016;SDS011;65949;53.132;17.930;2023-02-28T16:32:01;150.80;;;33.90;;
77016;SDS011;65949;53.132;17.930;2023-02-28T16:34:30;179.20;;;38.70;;
77016;SDS011;65949;53.132;17.930;2023-02-28T16:36:57;268.20;;;51.50;;
77016;SDS011;65949;53.132;17.930;2023-02-28T16:39:24;325.00;;;61.20;;
77016;SDS011;65949;53.132;17.930;2023-02-28T16:41:51;283.00;;;55.80;;
77016;SDS011;65949;53.132;17.930;2023-02-28T16:44:21;304.90;;;63.70;;
77016;SDS011;65949;53.132;17.930;2023-02-28T16:46:54;255.50;;;51.50;;
77016;SDS011;65949;53.132;17.930;2023-02-28T16:49:21;263.00;;;57.30;;
77016;SDS011;65949;53.132;17.930;2023-02-28T16:51:48;280.20;;;62.90;;
77016;SDS011;65949;53.132;17.930;2023-02-28T16:54:15;285.70;;;63.10;;
77016;SDS011;65949;53.132;17.930;2023-02-28T16:56:44;304.80;;;68.30;;
77016;SDS011;65949;53.132;17.930;2023-02-28T16:59:12;289.70;;;65.50;;
77016;SDS011;65949;53.132;17.930;2023-02-28T17:01:41;279.70;;;65.70;;
77016;SDS011;65949;53.132;17.930;2023-02-28T17:04:08;297.80;;;64.00;;
77016;SDS011;65949;53.132;17.930;2023-02-28T17:06:37;237.40;;;54.70;;
77016;SDS011;65949;53.132;17.930;2023-02-28T17:09:04;219.20;;;54.10;;
77016;SDS011;65949;53.132;17.930;2023-02-28T17:11:30;215.10;;;54.30;;